Time;durP1;ratioP1;P1;durP2;ratioP2;P2;SDS_P1;SDS_P2;PMS_P1;PMS_P2;Temp;Humidity;BMP_temperature;BMP_pressure;BME280_temperature;BME280_humidity;BME280_pressure;Samples;Min_cycle;Max_cycle;Signal;HPM_P1;HPM_P2
2022/04/23 00:02:10;;;;;;;16.15;13.48;;;16.10;71.40;;;;;;5013052;28;20026;-53
2022/04/23 00:04:36;;;;;;;17.27;13.98;;;16.10;71.30;;;;;;5013940;28;20088;-54
2022/04/23 00:07:02;;;;;;;14.25;12.80;;;16.10;71.30;;;;;;5013691;28;20061;-59
2022/04/23 00:09:28;;;;;;;15.32;13.75;;;16.10;71.30;;;;;;5032021;28;20026;-55
2022/04/23 00:11:55;;;;;;;15.55;13.80;;;16.20;71.10;;;;;;5033092;28;20406;-50
2022/04/23 00:14:22;;;;;;;16.48;14.95;;;16.10;71.20;;;;;;5028269;28;20029;-54
2022/04/23 00:16:50;;;;;;;15.43;13.65;;;16.20;71.10;;;;;;5032876;28;20071;-63
2022/04/23 00:19:16;;;;;;;16.13;14.52;;;16.10;71.40;;;;;;5028757;28;20029;-63
2022/04/23 00:21:42;;;;;;;17.00;14.35;;;16.10;71.30;;;;;;5031566;28;20040;-62
2022/04/23 00:24:08;;;;;;;16.60;13.35;;;16.10;71.30;;;;;;5041981;28;20029;-62
2022/04/23 00:26:33;;;;;;;15.02;13.73;;;16.10;71.30;;;;;;5041869;28;20034;-60
2022/04/23 00:28:59;;;;;;;15.80;13.15;;;16.00;71.60;;;;;;5036522;28;20422;-63
2022/04/23 00:31:26;;;;;;;16.00;14.30;;;16.00;71.60;;;;;;5035724;28;20083;-59
2022/04/23 00:33:52;;;;;;;14.55;13.15;;;16.10;71.60;;;;;;5032598;28;20017;-61
2022/04/23 00:36:18;;;;;;;15.52;14.02;;;16.10;71.50;;;;;;5033021;28;20104;-62
2022/04/23 00:38:45;;;;;;;16.50;14.15;;;16.10;71.70;;;;;;5033185;28;20049;-62
2022/04/23 00:41:43;;;;;;;15.90;14.40;;;16.00;71.70;;;;;;5039910;28;20021;-62
2022/04/23 00:43:57;;;;;;;15.68;14.15;;;16.10;71.80;;;;;;5052246;28;20037;-63
2022/04/23 00:46:22;;;;;;;15.05;13.55;;;16.10;71.80;;;;;;5052644;28;20075;-62
2022/04/23 00:48:48;;;;;;;16.30;14.82;;;16.00;72.20;;;;;;5052724;28;20040;-62
2022/04/23 00:51:14;;;;;;;16.45;14.93;;;15.90;72.30;;;;;;5052749;28;20040;-62
2022/04/23 00:53:39;;;;;;;16.25;14.52;;;15.90;72.40;;;;;;5052484;28;20381;-63
2022/04/23 00:56:05;;;;;;;16.45;14.95;;;15.80;72.70;;;;;;5052549;28;20112;-63
2022/04/23 00:58:31;;;;;;;16.17;14.57;;;15.90;72.70;;;;;;5052801;28;20021;-58
2022/04/23 01:00:56;;;;;;;17.02;15.35;;;15.90;72.90;;;;;;5052779;28;20052;-62
2022/04/23 01:03:22;;;;;;;16.77;15.07;;;15.90;73.10;;;;;;5052650;28;20096;-61
2022/04/23 01:05:48;;;;;;;16.80;15.18;;;15.80;73.20;;;;;;5052827;28;20049;-62
2022/04/23 01:08:18;;;;;;;16.60;14.88;;;15.90;73.00;;;;;;5052501;28;20044;-63
2022/04/23 01:10:44;;;;;;;17.48;15.35;;;15.90;73.00;;;;;;5049527;28;20474;-59
2022/04/23 01:13:11;;;;;;;19.58;16.05;;;15.90;73.30;;;;;;5030458;28;20026;-62
2022/04/23 01:15:37;;;;;;;17.23;15.52;;;15.80;73.60;;;;;;5032805;28;20028;-61
2022/04/23 01:18:03;;;;;;;17.50;15.57;;;15.70;74.00;;;;;;5032588;28;20022;-61
2022/04/23 01:20:29;;;;;;;17.70;15.98;;;15.70;74.20;;;;;;5032263;28;20494;-63
2022/04/23 01:22:54;;;;;;;18.17;15.45;;;15.80;74.00;;;;;;5030698;28;20044;-62
2022/04/23 01:25:22;;;;;;;16.88;15.18;;;15.80;73.90;;;;;;5031523;28;20034;-63
2022/04/23 01:27:50;;;;;;;19.20;17.40;;;15.80;73.90;;;;;;5036349;28;20402;-60
2022/04/23 01:30:16;;;;;;;17.30;15.60;;;15.80;74.30;;;;;;5036347;28;20103;-60
2022/04/23 01:32:42;;;;;;;17.92;16.13;;;15.80;74.20;;;;;;5036017;28;20459;-60
2022/04/23 01:35:08;;;;;;;17.88;16.00;;;15.70;74.70;;;;;;5036073;28;20105;-63
2022/04/23 01:37:33;;;;;;;17.38;15.70;;;15.60;74.80;;;;;;5036406;28;20025;-62
2022/04/23 01:39:59;;;;;;;17.52;15.82;;;15.70;74.90;;;;;;5035842;28;20025;-63
2022/04/23 01:42:25;;;;;;;17.42;15.68;;;15.60;75.00;;;;;;5035217;28;20073;-63
2022/04/23 01:44:51;;;;;;;18.85;16.38;;;15.70;74.80;;;;;;5047497;28;20029;-60
2022/04/23 01:47:18;;;;;;;19.98;18.10;;;15.70;74.80;;;;;;5043311;28;20073;-53
2022/04/23 01:49:44;;;;;;;18.50;16.70;;;15.80;74.60;;;;;;5036011;28;20093;-54
2022/04/23 01:52:10;;;;;;;18.83;17.10;;;15.70;74.70;;;;;;5035864;28;20051;-57
2022/04/23 01:54:36;;;;;;;17.75;15.93;;;15.80;75.50;;;;;;5037885;28;20383;-54
2022/04/23 01:57:02;;;;;;;19.50;15.70;;;15.80;74.90;;;;;;5035885;28;20485;-53
2022/04/23 01:59:28;;;;;;;18.48;16.77;;;15.80;74.80;;;;;;5035979;28;20459;-61
2022/04/23 02:01:54;;;;;;;18.70;16.83;;;15.70;74.90;;;;;;5035698;28;20090;-59
2022/04/23 02:04:20;;;;;;;18.30;16.60;;;15.70;75.20;;;;;;5035533;28;20478;-63
2022/04/23 02:06:46;;;;;;;19.02;17.27;;;15.70;75.20;;;;;;5035465;28;20037;-63
2022/04/23 02:09:12;;;;;;;20.05;17.42;;;15.60;75.40;;;;;;5035256;28;20022;-53
2022/04/23 02:11:37;;;;;;;17.73;15.98;;;15.60;75.70;;;;;;5035794;28;20378;-63
2022/04/23 02:14:03;;;;;;;19.42;17.58;;;15.60;75.60;;;;;;5030674;28;20112;-62
2022/04/23 02:16:30;;;;;;;19.08;17.27;;;15.60;75.50;;;;;;5033699;28;20163;-61
2022/04/23 02:18:57;;;;;;;19.85;17.90;;;15.60;75.70;;;;;;5034484;28;20034;-62
2022/04/23 02:21:26;;;;;;;18.45;16.65;;;15.50;76.00;;;;;;5035314;28;20022;-60
2022/04/23 02:23:53;;;;;;;19.48;17.58;;;15.50;76.10;;;;;;5034788;28;20032;-62
2022/04/23 02:26:20;;;;;;;18.67;16.92;;;15.60;76.00;;;;;;5035272;28;20103;-63
2022/04/23 02:28:47;;;;;;;19.60;16.33;;;15.50;76.20;;;;;;5035335;28;20075;-60
2022/04/23 02:31:12;;;;;;;19.50;17.60;;;15.50;76.30;;;;;;5035212;28;20017;-53
2022/04/23 02:33:38;;;;;;;19.58;17.70;;;15.40;76.70;;;;;;5035024;28;20372;-63
2022/04/23 02:36:06;;;;;;;18.75;16.95;;;15.50;76.60;;;;;;5034804;28;20083;-52
2022/04/23 02:38:32;;;;;;;19.90;18.10;;;15.50;76.60;;;;;;5034637;28;20442;-52
2022/04/23 02:40:57;;;;;;;21.80;18.23;;;15.50;76.60;;;;;;5035166;28;20108;-53
2022/04/23 02:43:23;;;;;;;19.90;18.00;;;15.50;76.30;;;;;;5035000;28;20409;-52
2022/04/23 02:45:49;;;;;;;18.65;16.85;;;15.50;76.30;;;;;;5035008;28;20522;-54
2022/04/23 02:48:14;;;;;;;19.55;17.63;;;15.60;76.20;;;;;;5034752;28;20037;-50
2022/04/23 02:50:40;;;;;;;20.40;18.38;;;15.50;76.30;;;;;;5034740;28;20460;-50
2022/04/23 02:53:06;;;;;;;19.50;17.63;;;15.50;76.50;;;;;;5034481;28;20034;-51
2022/04/23 02:55:33;;;;;;;20.63;18.42;;;15.50;76.50;;;;;;5034752;28;20026;-50
2022/04/23 02:58:07;;;;;;;20.83;18.75;;;15.50;76.30;;;;;;5034468;28;20228;-49
2022/04/23 03:00:34;;;;;;;21.33;18.23;;;15.50;76.60;;;;;;5034649;28;20025;-52
2022/04/23 03:03:00;;;;;;;19.60;17.70;;;15.50;76.70;;;;;;5034612;28;20036;-51
2022/04/23 03:05:26;;;;;;;20.42;18.63;;;15.40;77.00;;;;;;5034569;28;20364;-51
2022/04/23 03:07:53;;;;;;;21.35;19.00;;;15.40;76.90;;;;;;5034359;28;20065;-51
2022/04/23 03:10:19;;;;;;;19.75;18.05;;;15.40;76.90;;;;;;5034259;28;20025;-62
2022/04/23 03:12:45;;;;;;;19.80;18.00;;;15.30;77.30;;;;;;5034547;28;20398;-52
2022/04/23 03:15:16;;;;;;;20.60;18.75;;;15.30;77.30;;;;;;5034136;28;20057;-51
2022/04/23 03:17:42;;;;;;;22.02;19.73;;;15.40;77.00;;;;;;5034695;28;20029;-55
2022/04/23 03:20:09;;;;;;;20.90;18.83;;;15.40;76.90;;;;;;5034103;28;20028;-62
2022/04/23 03:22:38;;;;;;;21.02;19.00;;;15.40;76.90;;;;;;5034165;28;20033;-57
2022/04/23 03:25:05;;;;;;;22.05;19.83;;;15.40;76.90;;;;;;5033916;28;20128;-60
2022/04/23 03:27:31;;;;;;;20.60;18.65;;;15.40;77.10;;;;;;5034083;28;20092;-58
2022/04/23 03:30:00;;;;;;;21.58;19.45;;;15.40;77.10;;;;;;5034037;28;20021;-62
2022/04/23 03:32:26;;;;;;;20.70;18.70;;;15.40;77.20;;;;;;5034424;28;20029;-63
2022/04/23 03:34:53;;;;;;;21.80;19.63;;;15.30;77.80;;;;;;5033950;28;20490;-62
2022/04/23 03:37:18;;;;;;;21.20;19.23;;;15.20;78.00;;;;;;5033658;28;20040;-59
2022/04/23 03:39:47;;;;;;;21.40;19.35;;;15.10;78.00;;;;;;5034103;28;20013;-62
2022/04/23 03:42:12;;;;;;;21.83;19.75;;;15.20;77.80;;;;;;5033710;28;20025;-63
2022/04/23 03:44:38;;;;;;;23.33;21.00;;;15.30;77.80;;;;;;5033931;28;20025;-62
2022/04/23 03:47:04;;;;;;;21.77;19.77;;;15.20;77.70;;;;;;5033506;28;20037;-59
2022/04/23 03:49:30;;;;;;;21.80;19.55;;;15.20;77.50;;;;;;5033506;28;20044;-61
2022/04/23 03:51:57;;;;;;;22.33;19.15;;;15.20;77.80;;;;;;5033262;28;20025;-55
2022/04/23 03:54:23;;;;;;;21.80;19.80;;;15.10;77.80;;;;;;5033601;28;20013;-62
2022/04/23 03:56:49;;;;;;;23.55;21.08;;;15.20;77.70;;;;;;5033362;28;20102;-63
2022/04/23 03:59:15;;;;;;;21.17;19.23;;;15.00;77.90;;;;;;5033530;28;20072;-62
2022/04/23 04:01:41;;;;;;;22.40;20.23;;;15.10;77.90;;;;;;5033671;28;20075;-57
2022/04/23 04:04:07;;;;;;;21.52;19.40;;;15.00;77.90;;;;;;5033409;28;20085;-62
2022/04/23 04:06:33;;;;;;;22.10;20.05;;;14.90;78.40;;;;;;5033151;28;20096;-63
2022/04/23 04:08:59;;;;;;;22.38;20.27;;;14.90;78.60;;;;;;5033505;28;20108;-62
2022/04/23 04:11:24;;;;;;;21.00;18.85;;;14.90;78.60;;;;;;5033165;28;20021;-63
2022/04/23 04:13:50;;;;;;;21.92;19.73;;;14.90;78.60;;;;;;5033443;28;20088;-62
2022/04/23 04:16:17;;;;;;;22.58;20.23;;;15.00;78.40;;;;;;5033130;28;20026;-61
2022/04/23 04:18:45;;;;;;;20.33;18.45;;;14.90;78.50;;;;;;5033529;28;20097;-62
2022/04/23 04:21:12;;;;;;;21.42;19.33;;;15.00;78.20;;;;;;5033284;28;20036;-62
2022/04/23 04:23:39;;;;;;;21.15;18.92;;;15.00;78.20;;;;;;5033209;28;20026;-63
2022/04/23 04:26:06;;;;;;;21.98;19.88;;;14.90;78.40;;;;;;5032823;28;20053;-59
2022/04/23 04:28:32;;;;;;;20.80;18.80;;;15.00;78.60;;;;;;5033226;28;20479;-61
2022/04/23 04:33:42;;;;;;;22.38;19.73;;;14.90;78.50;;;;;;5033215;28;20063;-61
2022/04/23 04:36:07;;;;;;;22.27;19.90;;;14.80;78.90;;;;;;5032991;28;20521;-56
2022/04/23 04:38:34;;;;;;;21.02;19.02;;;14.80;79.40;;;;;;5032954;28;20028;-62
2022/04/23 04:40:59;;;;;;;21.52;19.48;;;14.70;79.40;;;;;;5033163;28;20068;-62
2022/04/23 04:43:25;;;;;;;21.80;19.80;;;14.70;79.50;;;;;;5032964;28;20061;-61
2022/04/23 04:45:51;;;;;;;21.05;18.92;;;14.70;79.40;;;;;;5033188;28;20053;-62
2022/04/23 04:48:16;;;;;;;21.48;19.50;;;14.80;79.00;;;;;;5032557;28;20034;-63
2022/04/23 04:50:42;;;;;;;22.15;19.95;;;14.90;78.70;;;;;;5033047;28;20060;-59
2022/04/23 04:53:07;;;;;;;21.65;19.55;;;15.00;78.70;;;;;;5032475;28;20087;-63
2022/04/23 04:55:34;;;;;;;21.08;19.15;;;15.00;78.40;;;;;;5032934;28;20037;-62
2022/04/23 04:58:00;;;;;;;21.70;19.73;;;15.00;78.40;;;;;;5033054;28;20407;-61
2022/04/23 05:00:27;;;;;;;22.92;20.65;;;15.00;78.40;;;;;;5033566;28;20026;-52
2022/04/23 05:02:52;;;;;;;22.08;19.90;;;15.00;78.40;;;;;;5030184;28;20029;-61
2022/04/23 05:05:18;;;;;;;23.70;21.50;;;15.00;78.60;;;;;;5015159;28;20026;-51
2022/04/23 05:07:44;;;;;;;23.42;21.13;;;15.00;78.60;;;;;;5015224;28;20080;-53
2022/04/23 05:10:10;;;;;;;23.60;21.15;;;14.80;79.00;;;;;;5016964;28;20109;-51
2022/04/23 05:12:35;;;;;;;23.10;20.90;;;14.80;79.10;;;;;;5016892;28;20105;-49
2022/04/23 05:15:01;;;;;;;23.98;21.80;;;14.90;78.90;;;;;;5016605;28;20050;-62
2022/04/23 05:17:26;;;;;;;25.05;22.65;;;14.90;78.70;;;;;;5016106;28;20029;-62
2022/04/23 05:19:52;;;;;;;24.50;22.17;;;14.90;78.60;;;;;;5016953;28;20026;-61
2022/04/23 05:22:17;;;;;;;24.67;22.23;;;14.90;78.80;;;;;;5016425;28;20034;-62
2022/04/23 05:24:43;;;;;;;22.48;20.38;;;14.90;78.80;;;;;;5016612;28;20065;-62
2022/04/23 05:27:08;;;;;;;25.33;21.58;;;14.90;78.80;;;;;;5016401;28;20041;-62
2022/04/23 05:29:34;;;;;;;23.00;20.85;;;14.90;78.90;;;;;;5016715;28;20025;-62
2022/04/23 05:31:59;;;;;;;23.58;21.08;;;14.90;78.60;;;;;;5016470;28;20034;-62
2022/04/23 05:34:28;;;;;;;21.42;19.40;;;14.90;78.70;;;;;;5016493;28;20044;-61
2022/04/23 05:36:54;;;;;;;22.20;20.05;;;14.90;78.80;;;;;;5016559;28;20022;-63
2022/04/23 05:39:19;;;;;;;23.05;20.75;;;14.80;79.30;;;;;;5016161;28;20088;-52
2022/04/23 05:41:45;;;;;;;23.38;21.25;;;14.80;79.20;;;;;;5016446;28;20022;-61
2022/04/23 05:44:10;;;;;;;21.67;19.70;;;14.80;79.20;;;;;;5016158;28;20034;-62
2022/04/23 05:46:36;;;;;;;24.73;22.13;;;14.90;79.10;;;;;;5016169;28;20029;-51
2022/04/23 05:49:01;;;;;;;23.95;21.73;;;14.90;79.20;;;;;;5016209;28;20029;-54
2022/04/23 05:51:27;;;;;;;22.88;20.88;;;14.90;79.10;;;;;;5016075;28;20041;-51
2022/04/23 05:53:52;;;;;;;24.38;21.98;;;14.90;79.30;;;;;;5016154;28;20538;-53
2022/04/23 05:56:18;;;;;;;23.42;20.73;;;14.80;79.60;;;;;;5016236;28;20032;-48
2022/04/23 05:58:44;;;;;;;24.08;21.75;;;14.80;79.70;;;;;;5016331;28;20034;-58
2022/04/23 06:01:09;;;;;;;23.65;21.15;;;14.80;79.70;;;;;;5018309;28;20459;-58
2022/04/23 06:03:35;;;;;;;23.67;21.38;;;14.80;79.80;;;;;;5024070;28;20144;-59
2022/04/23 06:06:01;;;;;;;23.05;20.88;;;14.80;79.80;;;;;;5030157;28;20022;-62
2022/04/23 06:08:26;;;;;;;23.98;21.67;;;14.80;79.90;;;;;;5035065;28;20087;-62
2022/04/23 06:10:52;;;;;;;23.98;21.48;;;14.80;79.90;;;;;;5034647;28;20502;-61
2022/04/23 06:13:17;;;;;;;23.35;21.17;;;14.90;80.10;;;;;;5035058;28;20037;-62
2022/04/23 06:15:43;;;;;;;23.08;20.85;;;14.90;79.90;;;;;;5035164;28;20028;-51
2022/04/23 06:18:09;;;;;;;24.10;21.60;;;14.90;79.70;;;;;;5034655;28;20029;-52
2022/04/23 06:20:34;;;;;;;24.60;21.95;;;15.00;79.40;;;;;;5033476;28;20030;-51
2022/04/23 06:23:04;;;;;;;24.00;21.48;;;15.00;79.50;;;;;;5035044;28;20471;-60
2022/04/23 06:25:30;;;;;;;28.13;21.35;;;15.10;79.50;;;;;;5035053;28;20037;-62
2022/04/23 06:27:56;;;;;;;24.75;22.35;;;15.10;79.20;;;;;;5016343;28;20030;-53
2022/04/23 06:30:22;;;;;;;23.58;21.17;;;15.20;79.00;;;;;;5016286;28;20033;-63
2022/04/23 06:32:47;;;;;;;25.17;22.00;;;15.20;78.70;;;;;;5030539;28;20021;-64
2022/04/23 06:35:13;;;;;;;22.50;20.10;;;15.00;78.60;;;;;;5023548;28;20037;-65
2022/04/23 06:37:40;;;;;;;23.65;21.23;;;14.70;80.40;;;;;;5034758;28;20110;-66
2022/04/23 06:40:07;;;;;;;19.65;17.80;;;14.30;81.70;;;;;;5034803;28;20025;-65
2022/04/23 06:42:32;;;;;;;24.42;22.13;;;14.20;82.90;;;;;;5034746;28;20026;-65
2022/04/23 06:44:58;;;;;;;24.50;21.88;;;14.10;83.70;;;;;;5034431;28;20021;-60
2022/04/23 06:47:23;;;;;;;25.00;22.48;;;14.10;83.70;;;;;;5034337;28;20479;-65
2022/04/23 06:49:49;;;;;;;23.50;21.13;;;14.10;84.00;;;;;;5034692;28;20511;-65
2022/04/23 06:52:14;;;;;;;24.13;21.63;;;14.10;84.10;;;;;;5034376;28;20088;-66
2022/04/23 06:54:40;;;;;;;22.55;20.35;;;14.20;83.70;;;;;;5034469;28;20029;-64
2022/04/23 06:57:06;;;;;;;25.48;22.77;;;14.10;83.70;;;;;;5034531;28;20021;-65
2022/04/23 06:59:33;;;;;;;22.98;20.67;;;14.00;84.50;;;;;;5037107;28;20115;-66
2022/04/23 07:02:02;;;;;;;24.05;21.38;;;14.00;84.50;;;;;;5021846;28;20037;-61
2022/04/23 07:04:28;;;;;;;25.13;22.17;;;14.00;84.60;;;;;;5014224;28;20029;-65
2022/04/23 07:06:54;;;;;;;24.65;22.20;;;14.00;84.90;;;;;;5014585;28;20022;-66
2022/04/23 07:09:20;;;;;;;24.02;21.67;;;14.00;85.00;;;;;;5014369;28;20018;-64
2022/04/23 07:11:47;;;;;;;25.10;22.60;;;14.10;84.70;;;;;;5027075;28;20074;-66
2022/04/23 07:14:12;;;;;;;25.65;22.65;;;14.10;84.70;;;;;;5033830;28;20029;-64
2022/04/23 07:16:38;;;;;;;25.55;22.95;;;14.00;84.80;;;;;;5033672;28;20025;-64
2022/04/23 07:19:07;;;;;;;25.58;21.88;;;14.10;84.70;;;;;;5024096;28;20032;-66
2022/04/23 07:21:34;;;;;;;24.23;21.92;;;14.20;84.40;;;;;;5029015;28;20028;-66
2022/04/23 07:24:03;;;;;;;24.27;21.75;;;14.30;84.00;;;;;;5033301;28;20038;-66
2022/04/23 07:26:29;;;;;;;30.73;19.48;;;14.30;84.00;;;;;;5033489;28;20040;-60
2022/04/23 07:28:54;;;;;;;22.42;20.33;;;14.50;83.70;;;;;;5029979;28;20021;-66
2022/04/23 07:31:20;;;;;;;23.40;21.17;;;14.90;82.10;;;;;;5032681;28;20053;-67
2022/04/23 07:39:13;;;;;;;21.63;19.33;;;15.70;78.30;;;;;;5033439;28;20045;-65
2022/04/23 07:41:39;;;;;;;23.45;21.13;;;15.90;77.40;;;;;;5030277;28;20383;-66
2022/04/23 07:44:05;;;;;;;22.92;20.73;;;16.00;77.10;;;;;;5028131;28;20084;-66
2022/04/23 07:46:30;;;;;;;21.52;19.45;;;16.10;76.70;;;;;;5024309;28;20435;-60
2022/04/23 07:48:58;;;;;;;21.40;18.90;;;16.20;76.10;;;;;;5029055;28;20033;-67
2022/04/23 07:51:26;;;;;;;22.48;20.27;;;16.20;76.10;;;;;;5030200;28;20025;-66
2022/04/23 07:53:52;;;;;;;22.67;20.45;;;16.30;75.60;;;;;;5031095;28;20490;-66
2022/04/23 07:56:18;;;;;;;21.35;19.17;;;16.30;75.40;;;;;;5033814;28;20159;-66
2022/04/23 07:58:43;;;;;;;23.15;20.73;;;16.40;75.30;;;;;;5030339;28;20017;-64
2022/04/23 08:01:09;;;;;;;21.63;19.63;;;16.40;75.20;;;;;;5029463;28;20389;-67
2022/04/23 08:03:34;;;;;;;20.95;18.85;;;16.50;75.10;;;;;;5025281;28;20498;-66
2022/04/23 08:06:00;;;;;;;22.75;20.65;;;16.50;74.90;;;;;;5029971;28;20044;-66
2022/04/23 08:08:26;;;;;;;21.13;18.92;;;16.60;74.50;;;;;;5030868;28;20041;-60
2022/04/23 08:10:51;;;;;;;22.33;19.85;;;16.70;74.30;;;;;;5030612;28;20118;-67
2022/04/23 08:13:17;;;;;;;21.02;18.92;;;16.70;74.50;;;;;;5031200;28;20140;-67
2022/04/23 08:15:43;;;;;;;21.35;19.40;;;16.70;74.70;;;;;;5032115;28;20367;-67
2022/04/23 08:18:08;;;;;;;21.08;19.02;;;16.80;74.10;;;;;;5028812;28;20029;-67
2022/04/23 08:20:34;;;;;;;22.88;20.42;;;16.90;73.80;;;;;;5015287;28;20025;-66
2022/04/23 08:22:59;;;;;;;22.15;19.90;;;16.90;74.40;;;;;;5044642;28;20029;-66
2022/04/23 08:25:25;;;;;;;21.83;19.80;;;16.80;74.30;;;;;;5027872;28;20034;-60
2022/04/23 08:30:34;;;;;;;21.05;18.85;;;16.80;74.10;;;;;;5047326;28;20021;-66
2022/04/23 08:30:41;;;;;;;23.35;21.00;;;16.90;74.10;;;;;;5035826;28;20028;-56
2022/04/23 08:33:07;;;;;;;24.75;19.55;;;16.90;74.20;;;;;;5037513;28;20029;-61
2022/04/23 08:35:34;;;;;;;22.05;20.10;;;16.80;74.70;;;;;;5040042;28;20024;-60
2022/04/23 08:38:00;;;;;;;22.33;20.10;;;16.90;74.80;;;;;;5029479;28;20087;-58
2022/04/23 08:40:29;;;;;;;21.92;19.63;;;16.90;74.20;;;;;;5034838;28;20438;-58
2022/04/23 08:42:57;;;;;;;21.42;19.45;;;16.90;74.10;;;;;;5036661;28;20017;-58
2022/04/23 08:45:23;;;;;;;22.83;20.52;;;16.90;73.90;;;;;;5036185;28;20386;-65
2022/04/23 08:47:50;;;;;;;21.85;19.80;;;16.90;73.90;;;;;;5032612;28;20036;-66
2022/04/23 08:50:19;;;;;;;21.48;19.40;;;16.90;74.40;;;;;;5032982;28;20383;-58
2022/04/23 08:52:51;;;;;;;23.00;19.65;;;16.90;74.30;;;;;;5028705;28;20025;-57
2022/04/23 08:55:18;;;;;;;23.08;20.73;;;17.00;74.50;;;;;;5031520;28;20072;-56
2022/04/23 08:57:44;;;;;;;22.27;19.98;;;17.00;74.40;;;;;;5037795;28;20034;-58
2022/04/23 09:00:12;;;;;;;22.95;20.48;;;17.00;74.40;;;;;;5036006;28;20544;-56
2022/04/23 09:02:38;;;;;;;22.85;20.65;;;17.00;73.90;;;;;;5035313;28;20082;-59
2022/04/23 09:05:04;;;;;;;21.70;19.73;;;17.10;74.30;;;;;;5029863;28;20114;-63
2022/04/23 09:07:30;;;;;;;22.10;19.48;;;17.10;73.80;;;;;;5029262;28;20544;-56
2022/04/23 09:09:57;;;;;;;21.55;19.35;;;17.10;74.20;;;;;;5027123;28;20033;-55
2022/04/23 09:12:25;;;;;;;21.40;19.17;;;17.10;74.20;;;;;;5028487;28;20667;-56
2022/04/23 09:14:53;;;;;;;20.85;18.75;;;17.20;74.00;;;;;;5030121;28;20056;-57
2022/04/23 09:25:38;;;;;;;23.50;21.08;;;17.20;74.50;;;;;;5028380;28;20080;-57
2022/04/23 09:28:15;;;;;;;22.45;19.55;;;17.20;74.10;;;;;;5027581;28;20494;-52
2022/04/23 09:30:40;;;;;;;20.00;17.95;;;17.30;73.90;;;;;;5030647;28;20026;-56
2022/04/23 09:33:06;;;;;;;21.20;19.17;;;17.30;73.70;;;;;;5027052;28;20032;-58
2022/04/23 09:35:32;;;;;;;21.77;19.73;;;17.30;73.60;;;;;;5021916;28;20114;-61
2022/04/23 09:38:14;;;;;;;22.67;20.42;;;17.30;74.10;;;;;;5025754;28;20054;-54
2022/04/23 09:40:40;;;;;;;21.33;19.33;;;17.20;73.90;;;;;;5032530;28;20094;-56
2022/04/23 09:43:07;;;;;;;19.92;17.83;;;17.30;74.50;;;;;;5031919;28;20034;-56
2022/04/23 09:45:39;;;;;;;21.98;19.77;;;17.30;74.30;;;;;;5026844;28;20030;-55
2022/04/23 09:48:04;;;;;;;22.30;18.63;;;17.30;73.60;;;;;;5037236;28;20032;-53
2022/04/23 09:50:40;;;;;;;21.35;19.35;;;17.30;73.60;;;;;;5031705;28;20390;-61
2022/04/23 09:53:13;;;;;;;20.45;18.48;;;17.40;73.40;;;;;;5028201;28;20034;-63
2022/04/23 09:55:39;;;;;;;20.92;18.92;;;17.50;73.30;;;;;;5027368;28;20521;-62
2022/04/23 09:58:09;;;;;;;21.40;19.40;;;17.40;73.50;;;;;;5037509;28;20028;-56
2022/04/23 10:00:36;;;;;;;20.67;18.55;;;17.40;73.60;;;;;;5034660;28;20026;-58
2022/04/23 10:03:07;;;;;;;21.10;18.90;;;17.40;73.90;;;;;;5052305;28;20493;-55
2022/04/23 10:05:41;;;;;;;20.65;18.45;;;17.50;73.40;;;;;;5038696;28;20389;-60
2022/04/23 10:08:12;;;;;;;23.90;20.10;;;17.50;73.10;;;;;;5035971;28;20037;-61
2022/04/23 10:10:47;;;;;;;21.65;19.02;;;17.40;73.40;;;;;;5035508;28;20018;-56
2022/04/23 10:13:16;;;;;;;19.83;17.77;;;17.40;73.80;;;;;;5042240;28;20509;-63
2022/04/23 10:15:45;;;;;;;21.85;19.52;;;17.40;73.80;;;;;;5035300;28;20022;-61
2022/04/23 10:18:13;;;;;;;20.77;18.88;;;17.50;73.70;;;;;;5018840;28;20014;-60
2022/04/23 10:20:53;;;;;;;22.23;18.95;;;17.50;73.90;;;;;;5025754;28;20025;-59
2022/04/23 10:23:43;;;;;;;20.23;18.00;;;17.50;74.00;;;;;;5025986;28;20475;-54
2022/04/23 10:26:20;;;;;;;22.20;19.20;;;17.50;74.00;;;;;;5018180;28;20055;-57
2022/04/23 10:28:48;;;;;;;19.83;17.77;;;17.50;73.60;;;;;;5029423;28;20043;-52
2022/04/23 10:31:15;;;;;;;18.92;17.02;;;17.60;73.60;;;;;;5030803;28;20096;-58
2022/04/23 10:33:54;;;;;;;20.17;18.20;;;17.60;73.70;;;;;;5032149;28;20414;-52
2022/04/23 10:36:21;;;;;;;19.42;17.70;;;17.60;73.50;;;;;;5032962;28;20036;-53
2022/04/23 10:38:52;;;;;;;19.70;17.90;;;17.60;73.40;;;;;;5030896;28;20030;-58
2022/04/23 10:41:20;;;;;;;19.33;17.52;;;17.60;73.50;;;;;;5031069;28;20036;-54
2022/04/23 10:43:47;;;;;;;18.55;16.75;;;17.60;73.00;;;;;;5034533;28;20119;-54
2022/04/23 10:46:50;;;;;;;18.70;16.48;;;17.70;73.80;;;;;;5033124;28;20471;-57
2022/04/23 10:49:23;;;;;;;19.83;16.42;;;17.70;72.90;;;;;;5004873;28;20064;-57
2022/04/23 10:51:57;;;;;;;18.63;16.75;;;17.70;73.10;;;;;;5021948;28;20045;-62
2022/04/23 10:54:41;;;;;;;17.70;15.93;;;17.70;73.20;;;;;;5040062;28;20032;-59
2022/04/23 10:57:07;;;;;;;18.58;16.75;;;17.70;73.10;;;;;;5033182;28;20080;-57
2022/04/23 10:59:48;;;;;;;17.98;16.25;;;17.70;73.20;;;;;;5032542;28;20033;-56
2022/04/23 11:02:19;;;;;;;19.33;16.88;;;17.80;73.00;;;;;;5034184;28;20506;-59
2022/04/23 11:13:39;;;;;;;17.00;15.07;;;17.80;72.70;;;;;;5027261;28;20502;-56
2022/04/23 11:16:16;;;;;;;17.88;16.02;;;17.80;72.80;;;;;;5037800;28;20033;-54
2022/04/23 11:18:42;;;;;;;17.88;15.70;;;17.80;73.00;;;;;;5035325;28;20017;-57
2022/04/23 11:21:26;;;;;;;17.75;15.88;;;17.90;73.10;;;;;;5032841;28;20057;-59
2022/04/23 11:23:56;;;;;;;17.48;15.68;;;17.90;73.00;;;;;;5031455;28;20025;-59
2022/04/23 11:26:40;;;;;;;16.73;15.05;;;18.00;73.00;;;;;;5030961;28;20041;-56
2022/04/23 11:29:06;;;;;;;16.05;13.82;;;18.00;72.00;;;;;;5040983;28;20046;-54
2022/04/23 11:31:31;;;;;;;15.70;14.15;;;18.00;72.20;;;;;;5029518;28;20056;-55
2022/04/23 11:33:59;;;;;;;21.17;16.33;;;18.00;72.50;;;;;;5029188;28;20105;-50
2022/04/23 11:36:27;;;;;;;16.50;14.02;;;18.00;72.10;;;;;;5030974;28;20029;-57
2022/04/23 11:39:00;;;;;;;17.10;14.93;;;18.00;72.10;;;;;;5027627;28;20471;-57
2022/04/23 11:41:36;;;;;;;18.75;15.73;;;18.10;72.30;;;;;;5027908;28;20041;-57
2022/04/23 11:44:17;;;;;;;15.95;13.48;;;18.10;72.30;;;;;;5025429;28;20036;-54
2022/04/23 11:46:48;;;;;;;15.35;13.00;;;18.10;72.50;;;;;;5023003;28;20072;-52
2022/04/23 11:49:30;;;;;;;17.17;13.98;;;18.10;71.10;;;;;;5030028;28;20034;-58
2022/04/23 11:52:03;;;;;;;16.35;13.32;;;18.20;71.90;;;;;;5020188;28;20025;-62
2022/04/23 11:54:35;;;;;;;15.02;13.55;;;18.20;71.20;;;;;;5031419;28;20045;-57
2022/04/23 11:57:02;;;;;;;15.95;14.35;;;18.10;70.70;;;;;;5024467;28;20030;-57
2022/04/23 11:59:39;;;;;;;15.95;14.27;;;18.10;71.30;;;;;;5023831;28;20040;-62
2022/04/23 12:02:06;;;;;;;16.38;14.68;;;18.20;71.50;;;;;;5026460;28;20033;-58
2022/04/23 12:04:42;;;;;;;17.77;13.77;;;18.20;71.40;;;;;;5029977;28;20049;-62
2022/04/23 12:07:07;;;;;;;16.08;13.65;;;18.20;71.30;;;;;;5026297;28;20113;-58
2022/04/23 12:09:53;;;;;;;18.55;14.00;;;18.30;71.60;;;;;;5018472;28;20152;-61
2022/04/23 12:12:22;;;;;;;15.15;12.23;;;18.30;71.40;;;;;;5029062;28;20024;-60
2022/04/23 12:14:53;;;;;;;13.40;12.02;;;18.30;70.70;;;;;;5027220;28;20502;-55
2022/04/23 12:17:23;;;;;;;13.00;11.70;;;18.30;70.40;;;;;;5027903;28;20025;-59
2022/04/23 12:19:50;;;;;;;16.75;12.77;;;18.40;70.60;;;;;;5015021;28;20017;-62
2022/04/23 12:22:54;;;;;;;13.13;11.45;;;18.40;71.10;;;;;;5034019;28;20041;-55
2022/04/23 12:25:19;;;;;;;13.07;11.70;;;18.40;70.60;;;;;;5028676;28;20505;-51
2022/04/23 12:28:02;;;;;;;13.18;11.80;;;18.30;70.60;;;;;;5027660;28;20041;-57
2022/04/23 12:41:54;;;;;;;13.18;11.98;;;18.50;71.00;;;;;;5029996;28;20037;-63
2022/04/23 12:44:21;;;;;;;12.60;11.40;;;18.60;70.60;;;;;;5026184;28;20438;-59
2022/04/23 12:46:58;;;;;;;12.45;11.10;;;18.60;70.50;;;;;;5022137;28;20029;-53
2022/04/23 12:49:43;;;;;;;13.45;11.80;;;18.60;70.50;;;;;;5030289;28;20105;-61
2022/04/23 12:52:14;;;;;;;13.18;11.88;;;18.60;70.50;;;;;;5040313;28;20017;-54
2022/04/23 12:54:40;;;;;;;15.57;12.80;;;18.70;70.50;;;;;;5038919;28;20052;-53
2022/04/23 12:57:15;;;;;;;13.25;10.73;;;18.70;70.10;;;;;;5030266;28;20064;-56
2022/04/23 12:59:41;;;;;;;11.32;10.13;;;18.80;69.20;;;;;;5029604;28;20079;-63
2022/04/23 13:02:06;;;;;;;16.88;11.63;;;18.70;69.50;;;;;;5027381;28;20460;-56
2022/04/23 13:04:32;;;;;;;16.25;11.38;;;18.80;69.70;;;;;;5025653;28;20029;-62
2022/04/23 13:09:41;;;;;;;11.30;10.20;;;18.90;68.80;;;;;;5025532;28;20076;-63
2022/04/23 13:12:08;;;;;;;12.73;10.18;;;18.90;68.90;;;;;;5026238;28;20029;-56